Time;durP1;ratioP1;P1;durP2;ratioP2;P2;SDS_P1;SDS_P2;PMS_P1;PMS_P2;Temp;Humidity;BMP_temperature;BMP_pressure;BME280_temperature;BME280_humidity;BME280_pressure;Samples;Min_cycle;Max_cycle;Signal;HPM_P1;HPM_P2
2022/12/03 00:00:13;;;;;;;79.57;52.47;;;103.20;2227.20;;;;;;4981253;28;20540;-55
2022/12/03 00:02:40;;;;;;;66.97;42.30;;;103.20;2227.20;;;;;;4982558;28;20370;-55
2022/12/03 00:05:06;;;;;;;63.03;40.80;;;103.20;2227.20;;;;;;4981708;28;20339;-62
2022/12/03 00:07:32;;;;;;;64.25;45.35;;;103.20;2227.20;;;;;;4980688;28;20118;-57
2022/12/03 00:09:58;;;;;;;55.28;37.72;;;103.10;2227.20;;;;;;4979941;28;20033;-64
2022/12/03 00:12:24;;;;;;;61.88;40.80;;;103.10;2227.20;;;;;;4972801;28;20396;-56
2022/12/03 00:14:49;;;;;;;78.68;52.35;;;103.10;2227.20;;;;;;4973080;28;20019;-60
2022/12/03 00:17:15;;;;;;;56.58;36.80;;;103.10;2227.20;;;;;;4973042;28;20061;-56
2022/12/03 00:19:41;;;;;;;47.65;32.45;;;103.00;2227.20;;;;;;4973035;28;20496;-56
2022/12/03 00:22:06;;;;;;;60.22;38.88;;;102.90;2227.20;;;;;;4972461;28;20046;-56
2022/12/03 00:24:32;;;;;;;70.75;42.88;;;102.90;2227.20;;;;;;4972927;28;20038;-56
2022/12/03 00:26:58;;;;;;;87.40;55.45;;;102.90;2227.20;;;;;;4972962;28;20034;-56
2022/12/03 00:29:23;;;;;;;68.10;43.95;;;102.90;2227.20;;;;;;4972646;28;20469;-56
2022/12/03 00:31:49;;;;;;;65.95;44.08;;;103.00;2227.20;;;;;;4972831;28;20491;-64
2022/12/03 00:34:15;;;;;;;66.20;38.90;;;103.10;2227.20;;;;;;4972670;28;20049;-56
2022/12/03 00:36:40;;;;;;;68.90;37.60;;;102.90;2227.20;;;;;;4972711;28;20074;-56
2022/12/03 00:39:06;;;;;;;117.85;69.90;;;102.80;2227.20;;;;;;4972544;28;20105;-56
2022/12/03 00:41:32;;;;;;;112.50;63.58;;;102.90;2227.20;;;;;;4972768;28;20389;-56
2022/12/03 00:43:57;;;;;;;70.75;46.05;;;103.20;2227.20;;;;;;4972455;28;20034;-56
2022/12/03 00:46:24;;;;;;;60.17;41.30;;;103.00;2227.20;;;;;;4972401;28;20030;-56
2022/12/03 00:48:50;;;;;;;67.30;48.25;;;103.10;2227.20;;;;;;4972777;28;20031;-56
2022/12/03 00:51:15;;;;;;;62.13;42.00;;;103.10;2227.20;;;;;;4972253;28;20385;-56
2022/12/03 00:53:41;;;;;;;59.55;37.97;;;103.00;2227.20;;;;;;4972702;28;20073;-56
2022/12/03 00:56:07;;;;;;;93.75;62.03;;;103.00;2227.20;;;;;;4971938;28;20058;-56
2022/12/03 00:58:33;;;;;;;133.20;83.95;;;103.00;2227.20;;;;;;4972499;28;20212;-56
2022/12/03 01:00:59;;;;;;;95.40;63.22;;;103.10;2227.20;;;;;;4972209;28;20033;-56
2022/12/03 01:03:24;;;;;;;135.63;86.20;;;103.10;2227.20;;;;;;4971844;28;20494;-56
2022/12/03 01:05:50;;;;;;;104.28;65.30;;;103.10;2227.20;;;;;;4971912;28;20034;-56
2022/12/03 01:08:16;;;;;;;62.55;40.33;;;103.10;2227.20;;;;;;4972175;28;20030;-56
2022/12/03 01:10:42;;;;;;;50.97;32.22;;;103.00;2227.20;;;;;;4972283;28;20026;-56
2022/12/03 01:13:07;;;;;;;51.25;33.03;;;102.80;2227.20;;;;;;4971924;28;20038;-56
2022/12/03 01:15:33;;;;;;;59.38;37.30;;;102.60;2227.20;;;;;;4971883;28;20386;-56
2022/12/03 01:17:59;;;;;;;48.33;32.55;;;102.60;2227.20;;;;;;4971904;28;20102;-56
2022/12/03 01:20:25;;;;;;;54.22;35.80;;;102.60;2227.20;;;;;;4971756;28;20051;-56
2022/12/03 01:22:50;;;;;;;52.33;36.00;;;102.40;2227.20;;;;;;4971886;28;20035;-56
2022/12/03 01:25:16;;;;;;;51.92;33.60;;;77.70;2227.20;;;;;;4971853;28;20019;-56
2022/12/03 01:27:42;;;;;;;49.72;30.23;;;77.60;2227.20;;;;;;4972194;28;20481;-56
2022/12/03 01:30:10;;;;;;;50.45;32.03;;;77.60;2227.20;;;;;;4971511;28;20052;-56
2022/12/03 01:32:35;;;;;;;47.15;29.42;;;77.60;2227.20;;;;;;4973332;28;20090;-56
2022/12/03 01:35:01;;;;;;;53.70;31.83;;;77.70;2227.20;;;;;;4979690;28;20417;-64
2022/12/03 01:37:27;;;;;;;55.30;35.58;;;102.40;2048.00;;;;;;4981007;28;20388;-57
2022/12/03 01:39:53;;;;;;;54.83;35.30;;;102.50;2227.20;;;;;;4981011;28;20019;-56
2022/12/03 01:42:29;;;;;;;53.20;32.95;;;102.60;2227.20;;;;;;4980133;28;20109;-62
2022/12/03 01:44:57;;;;;;;169.32;101.38;;;102.70;2227.20;;;;;;4979479;28;20022;-56
2022/12/03 01:47:30;;;;;;;60.90;37.72;;;102.80;2227.20;;;;;;4979556;28;20070;-56
2022/12/03 01:49:57;;;;;;;40.72;25.73;;;102.70;2227.20;;;;;;4980113;28;20014;-60
2022/12/03 01:52:28;;;;;;;50.53;33.22;;;102.60;2227.20;;;;;;4981599;28;20026;-56
2022/12/03 01:54:56;;;;;;;114.25;69.88;;;102.60;2227.20;;;;;;4980724;28;20027;-56
2022/12/03 01:57:47;;;;;;;61.80;41.55;;;102.60;2227.20;;;;;;4979322;28;20047;-56
2022/12/03 02:00:21;;;;;;;59.15;37.03;;;102.50;2227.20;;;;;;4978329;28;20034;-56
2022/12/03 02:02:51;;;;;;;45.88;32.80;;;102.40;2227.20;;;;;;4977214;28;20114;-64
2022/12/03 02:05:26;;;;;;;66.20;42.85;;;77.70;2227.20;;;;;;4979644;28;20109;-56
2022/12/03 02:07:53;;;;;;;61.85;41.55;;;77.70;2227.20;;;;;;4984386;28;20362;-59
2022/12/03 02:10:24;;;;;;;48.80;30.42;;;77.70;2227.20;;;;;;4990776;28;20068;-56
2022/12/03 02:13:07;;;;;;;45.38;29.35;;;102.40;2227.20;;;;;;4990755;28;20058;-56
2022/12/03 02:15:34;;;;;;;42.55;28.15;;;77.60;2227.20;;;;;;4994427;28;20110;-57
2022/12/03 02:18:00;;;;;;;49.45;29.15;;;77.50;1945.60;;;;;;4994964;28;20022;-56
2022/12/03 02:20:26;;;;;;;48.35;31.50;;;77.30;2227.20;;;;;;4994571;28;20519;-56
2022/12/03 02:23:01;;;;;;;55.97;34.78;;;77.20;2227.20;;;;;;4994686;28;20500;-56
2022/12/03 02:25:30;;;;;;;60.10;34.70;;;77.10;2227.20;;;;;;4994301;28;20029;-56
2022/12/03 02:27:58;;;;;;;59.65;35.30;;;77.10;2227.20;;;;;;4994271;28;20027;-65
2022/12/03 02:30:25;;;;;;;56.30;38.97;;;77.10;2227.20;;;;;;4994385;28;20046;-56
2022/12/03 02:32:52;;;;;;;62.00;41.83;;;77.20;2227.20;;;;;;4994520;28;20026;-66
2022/12/03 02:35:20;;;;;;;58.63;39.38;;;77.30;2227.20;;;;;;4994164;28;20034;-58
2022/12/03 02:37:50;;;;;;;58.83;34.40;;;77.30;2227.20;;;;;;4994250;28;20034;-56
2022/12/03 02:40:23;;;;;;;54.60;32.78;;;77.40;2227.20;;;;;;4994251;28;20030;-56
2022/12/03 02:42:50;;;;;;;;;;;77.30;2073.60;;;;;;4994971;28;20061;-64
2022/12/03 02:45:32;;;;;;;47.47;30.13;;;77.40;2227.20;;;;;;4994143;28;19906;-58
2022/12/03 02:48:20;;;;;;;66.15;35.40;;;77.30;2227.20;;;;;;4993995;28;20030;-58
2022/12/03 02:50:50;;;;;;;61.65;36.33;;;77.40;2227.20;;;;;;4994120;28;20022;-64
2022/12/03 02:53:19;;;;;;;59.08;38.53;;;77.50;2227.20;;;;;;4993984;28;20058;-58
2022/12/03 02:55:46;;;;;;;58.65;38.15;;;77.50;2227.20;;;;;;4994084;28;20046;-62
2022/12/03 02:58:12;;;;;;;52.13;33.33;;;77.50;2227.20;;;;;;4994392;28;20050;-56
2022/12/03 03:00:38;;;;;;;54.50;33.65;;;77.50;2227.20;;;;;;4993773;28;20034;-56
2022/12/03 03:03:06;;;;;;;49.33;31.17;;;77.60;2227.20;;;;;;4993546;28;20531;-62
2022/12/03 03:05:33;;;;;;;46.03;33.40;;;77.60;2227.20;;;;;;4993657;28;20031;-55
2022/12/03 03:08:00;;;;;;;41.60;28.33;;;77.50;2227.20;;;;;;4994031;28;20106;-58
2022/12/03 03:10:27;;;;;;;47.53;29.35;;;77.60;2227.20;;;;;;4993748;28;20029;-62
2022/12/03 03:12:54;;;;;;;48.75;28.95;;;77.50;2227.20;;;;;;4993622;28;20045;-57
2022/12/03 03:15:22;;;;;;;46.67;29.25;;;77.50;2227.20;;;;;;4993466;28;20040;-57
2022/12/03 03:17:47;;;;;;;45.45;28.23;;;77.50;2227.20;;;;;;4988765;28;20110;-56
2022/12/03 03:20:13;;;;;;;40.55;27.85;;;77.50;2227.20;;;;;;4973970;28;20106;-56
2022/12/03 03:22:41;;;;;;;45.35;28.80;;;77.50;2227.20;;;;;;4974061;28;20702;-54
2022/12/03 03:25:14;;;;;;;44.45;28.67;;;77.50;2227.20;;;;;;4973733;28;20425;-56
2022/12/03 03:27:41;;;;;;;43.88;28.88;;;77.40;2227.20;;;;;;4974141;28;20097;-55
2022/12/03 03:30:08;;;;;;;47.40;29.42;;;77.50;2227.20;;;;;;4973762;28;20034;-55
2022/12/03 03:32:35;;;;;;;47.20;28.98;;;77.40;2227.20;;;;;;4973739;28;20481;-55
2022/12/03 03:35:01;;;;;;;49.53;31.95;;;77.40;2227.20;;;;;;4973720;28;20077;-54
2022/12/03 03:37:27;;;;;;;48.40;32.72;;;77.40;2227.20;;;;;;4973621;28;20042;-58
2022/12/03 03:39:54;;;;;;;56.20;31.20;;;77.40;2227.20;;;;;;4973866;28;20023;-58
2022/12/03 03:42:20;;;;;;;45.95;30.13;;;77.40;2227.20;;;;;;4973737;28;20027;-62
2022/12/03 03:44:46;;;;;;;47.83;28.40;;;77.40;2227.20;;;;;;4973690;28;20021;-63
2022/12/03 03:47:13;;;;;;;44.78;30.50;;;77.40;2227.20;;;;;;4973784;28;20109;-62
2022/12/03 03:49:39;;;;;;;48.42;31.27;;;77.40;2227.20;;;;;;4973516;28;20023;-54
2022/12/03 03:52:05;;;;;;;42.78;28.02;;;77.40;2227.20;;;;;;4973496;28;20106;-55
2022/12/03 03:54:31;;;;;;;44.92;27.73;;;77.40;2227.20;;;;;;4973720;28;20106;-64
2022/12/03 03:56:57;;;;;;;47.55;30.60;;;77.40;2227.20;;;;;;4973371;28;20051;-62
2022/12/03 03:59:23;;;;;;;41.08;28.98;;;77.30;2227.20;;;;;;4973688;28;20030;-56
2022/12/03 04:01:48;;;;;;;46.33;30.75;;;77.30;2227.20;;;;;;4973267;28;20066;-64
2022/12/03 04:04:19;;;;;;;50.38;32.50;;;77.20;2227.20;;;;;;4973400;28;20050;-57
2022/12/03 04:06:45;;;;;;;44.72;28.73;;;77.20;2227.20;;;;;;4973119;28;20470;-55
2022/12/03 04:09:11;;;;;;;49.95;32.60;;;77.30;2227.20;;;;;;4973434;28;20512;-55
2022/12/03 04:14:21;;;;;;;56.00;32.90;;;77.10;2227.20;;;;;;4973501;28;20038;-54
2022/12/03 04:16:46;;;;;;;55.05;35.78;;;77.00;2227.20;;;;;;4973083;28;20043;-57
2022/12/03 04:19:12;;;;;;;50.85;31.48;;;76.90;2227.20;;;;;;4973304;28;20042;-55
2022/12/03 04:24:22;;;;;;;48.22;31.48;;;76.80;2227.20;;;;;;4973051;28;20069;-62
2022/12/03 04:29:32;;;;;;;45.88;30.73;;;76.80;2227.20;;;;;;4973138;28;20396;-55
2022/12/03 04:37:25;;;;;;;44.97;27.95;;;77.00;2227.20;;;;;;4972148;28;20504;-57
2022/12/03 04:39:51;;;;;;;49.65;31.70;;;76.90;2227.20;;;;;;4972656;28;20030;-56
2022/12/03 04:42:17;;;;;;;46.05;27.33;;;76.90;1920.00;;;;;;4972386;28;20057;-63
2022/12/03 04:44:43;;;;;;;43.97;29.17;;;77.00;2227.20;;;;;;4973042;28;20023;-56
2022/12/03 04:47:10;;;;;;;49.15;31.27;;;76.90;2099.20;;;;;;4972912;28;20110;-57
2022/12/03 04:49:38;;;;;;;43.08;29.65;;;76.90;1945.60;;;;;;4972533;28;20026;-56
2022/12/03 04:52:04;;;;;;;45.15;25.45;;;52.10;2227.20;;;;;;4972421;28;20572;-57
2022/12/03 04:54:30;;;;;;;48.13;29.17;;;76.80;2227.20;;;;;;4972588;28;20465;-65
2022/12/03 04:56:56;;;;;;;52.38;31.27;;;76.80;2227.20;;;;;;4972179;28;20054;-57
2022/12/03 04:59:22;;;;;;;48.80;30.50;;;76.90;2073.60;;;;;;4972469;28;20114;-65
2022/12/03 05:01:47;;;;;;;48.03;30.25;;;76.90;2227.20;;;;;;4972154;28;20045;-65
2022/12/03 05:04:14;;;;;;;43.13;27.38;;;76.90;1894.40;;;;;;4972172;28;20401;-57
2022/12/03 05:06:40;;;;;;;41.05;27.45;;;77.00;2227.20;;;;;;4972210;28;20031;-64
2022/12/03 05:09:06;;;;;;;47.35;32.42;;;76.90;2124.80;;;;;;4971987;28;20049;-57
2022/12/03 05:11:32;;;;;;;38.30;26.00;;;76.90;2227.20;;;;;;4972191;28;20030;-57
2022/12/03 05:13:58;;;;;;;55.85;36.20;;;76.90;1843.20;;;;;;4971802;28;20069;-64
2022/12/03 05:16:23;;;;;;;49.10;33.67;;;76.90;2227.20;;;;;;4971993;28;20034;-56
2022/12/03 05:18:49;;;;;;;46.22;29.50;;;76.90;2227.20;;;;;;4972109;28;20058;-56
2022/12/03 05:21:15;;;;;;;36.45;26.02;;;76.90;2227.20;;;;;;4971924;28;20034;-57
2022/12/03 05:23:41;;;;;;;38.50;26.38;;;76.90;2227.20;;;;;;4972082;28;20022;-56
2022/12/03 05:26:07;;;;;;;44.45;31.20;;;76.90;2227.20;;;;;;4971700;28;20038;-57
2022/12/03 05:28:32;;;;;;;42.83;28.85;;;76.80;2227.20;;;;;;4971825;28;20026;-56
2022/12/03 05:30:58;;;;;;;42.92;25.90;;;76.90;2227.20;;;;;;4971618;28;20027;-57
2022/12/03 05:33:24;;;;;;;42.75;27.23;;;76.90;2227.20;;;;;;4971476;28;20037;-56
2022/12/03 05:35:49;;;;;;;39.03;27.15;;;76.90;2227.20;;;;;;4971621;28;20539;-63
2022/12/03 05:38:15;;;;;;;42.92;27.27;;;76.80;2227.20;;;;;;4971565;28;20030;-57
2022/12/03 05:40:41;;;;;;;42.05;26.67;;;76.80;2227.20;;;;;;4971733;28;20027;-56
2022/12/03 05:43:07;;;;;;;36.33;27.75;;;76.80;2227.20;;;;;;4971287;28;20507;-55
2022/12/03 05:45:36;;;;;;;40.55;27.52;;;52.00;2227.20;;;;;;4971609;28;20034;-57
2022/12/03 05:48:04;;;;;;;37.72;25.60;;;52.00;2227.20;;;;;;4970945;28;20121;-63
2022/12/03 05:50:32;;;;;;;40.78;29.17;;;52.10;2227.20;;;;;;4971622;28;20035;-66
2022/12/03 05:52:58;;;;;;;42.58;26.17;;;52.10;2227.20;;;;;;4971519;28;20031;-56
2022/12/03 05:55:25;;;;;;;40.13;26.90;;;52.00;2227.20;;;;;;4971174;28;20549;-57
2022/12/03 05:57:51;;;;;;;35.75;25.13;;;52.00;2227.20;;;;;;4971541;28;20054;-56
2022/12/03 06:00:18;;;;;;;39.03;27.65;;;52.10;2227.20;;;;;;4971150;28;20069;-58
2022/12/03 06:02:44;;;;;;;37.45;27.02;;;52.00;2227.20;;;;;;4971351;28;20038;-56
2022/12/03 06:05:11;;;;;;;40.25;27.70;;;52.10;2227.20;;;;;;4971464;28;20485;-56
2022/12/03 06:07:37;;;;;;;45.65;31.00;;;52.10;2227.20;;;;;;4971285;28;20039;-63
2022/12/03 06:10:04;;;;;;;74.80;40.47;;;52.10;2227.20;;;;;;4971449;28;20588;-65
2022/12/03 06:12:30;;;;;;;69.38;43.03;;;51.90;2227.20;;;;;;4971261;28;20027;-56
2022/12/03 06:14:56;;;;;;;64.95;41.50;;;51.70;2227.20;;;;;;4971179;28;20023;-57
2022/12/03 06:17:21;;;;;;;56.60;34.15;;;51.60;2227.20;;;;;;4971358;28;20034;-64
2022/12/03 06:19:47;;;;;;;47.00;31.13;;;51.70;2227.20;;;;;;4971171;28;20027;-57
2022/12/03 06:22:13;;;;;;;48.65;29.42;;;51.90;2227.20;;;;;;4971451;28;20041;-57
2022/12/03 06:24:38;;;;;;;46.33;31.73;;;52.10;2227.20;;;;;;4971396;28;20110;-63
2022/12/03 06:27:04;;;;;;;45.22;29.90;;;76.80;2227.20;;;;;;4970932;28;20053;-61
2022/12/03 06:29:30;;;;;;;42.55;29.80;;;77.00;2227.20;;;;;;4971236;28;20043;-62
2022/12/03 06:31:56;;;;;;;60.20;47.65;;;77.00;2227.20;;;;;;4971019;28;20042;-66
2022/12/03 06:34:21;;;;;;;178.45;104.55;;;77.20;2227.20;;;;;;4971099;28;20023;-56
2022/12/03 06:36:49;;;;;;;154.73;96.70;;;77.20;2227.20;;;;;;4970772;28;20039;-58
2022/12/03 06:39:15;;;;;;;144.48;86.38;;;77.20;2227.20;;;;;;4971023;28;20370;-63
2022/12/03 06:41:41;;;;;;;108.72;71.70;;;77.30;2227.20;;;;;;4971199;28;20098;-65
2022/12/03 06:44:07;;;;;;;74.47;49.95;;;77.40;2227.20;;;;;;4970896;28;20038;-65
2022/12/03 06:46:32;;;;;;;75.57;40.70;;;77.50;2227.20;;;;;;4970929;28;20038;-61
2022/12/03 06:48:59;;;;;;;72.28;37.25;;;77.30;2227.20;;;;;;4970709;28;20057;-59
2022/12/03 06:51:25;;;;;;;63.00;37.38;;;77.20;2227.20;;;;;;4970861;28;20027;-57
2022/12/03 06:53:51;;;;;;;60.47;39.08;;;77.10;2227.20;;;;;;4970990;28;20023;-56
2022/12/03 06:56:17;;;;;;;73.10;45.90;;;77.10;2227.20;;;;;;4970724;28;20086;-59
2022/12/03 06:58:42;;;;;;;66.18;42.03;;;77.00;2227.20;;;;;;4971080;28;20019;-56
2022/12/03 07:01:08;;;;;;;94.43;58.75;;;77.40;2227.20;;;;;;4974077;28;20035;-56
2022/12/03 07:03:34;;;;;;;66.90;37.67;;;77.50;2227.20;;;;;;4974285;28;20046;-56
2022/12/03 07:05:59;;;;;;;55.65;36.10;;;77.70;2227.20;;;;;;4974190;28;20030;-66
2022/12/03 07:08:26;;;;;;;50.13;33.10;;;102.40;2227.20;;;;;;4974269;28;20038;-56
2022/12/03 07:10:51;;;;;;;55.35;37.65;;;102.60;2227.20;;;;;;4974291;28;20477;-56
2022/12/03 07:13:17;;;;;;;91.90;53.88;;;102.70;2227.20;;;;;;4974290;28;20026;-65
2022/12/03 07:15:43;;;;;;;80.63;51.00;;;102.70;2227.20;;;;;;4974344;28;20033;-66
2022/12/03 07:18:08;;;;;;;71.22;47.58;;;102.70;2227.20;;;;;;4974264;28;20437;-66
2022/12/03 07:20:34;;;;;;;79.70;52.47;;;102.90;2227.20;;;;;;4974128;28;20029;-62
2022/12/03 07:23:00;;;;;;;69.70;46.17;;;102.90;2227.20;;;;;;4973991;28;20042;-57
2022/12/03 07:25:25;;;;;;;86.90;53.35;;;103.00;2227.20;;;;;;4974034;28;20050;-63
2022/12/03 07:27:51;;;;;;;76.75;49.88;;;102.90;2227.20;;;;;;4974018;28;20114;-56
2022/12/03 07:30:17;;;;;;;76.40;49.13;;;103.00;2227.20;;;;;;4973637;28;20030;-62
2022/12/03 07:32:43;;;;;;;70.88;46.40;;;103.10;2227.20;;;;;;4974072;28;20035;-63
2022/12/03 07:35:09;;;;;;;70.35;43.50;;;103.20;2227.20;;;;;;4973728;28;20034;-57
2022/12/03 07:37:35;;;;;;;58.35;38.47;;;103.20;2227.20;;;;;;4973758;28;20130;-62
2022/12/03 07:40:01;;;;;;;68.35;44.88;;;103.30;2227.20;;;;;;4973856;28;20453;-57
2022/12/03 07:42:27;;;;;;;62.45;44.47;;;103.30;2227.20;;;;;;4973525;28;20042;-57
2022/12/03 07:44:53;;;;;;;67.32;47.08;;;128.00;2252.80;;;;;;4973969;28;20489;-56
2022/12/03 07:47:19;;;;;;;60.00;42.53;;;128.10;2252.80;;;;;;4973450;28;20031;-56
2022/12/03 07:49:44;;;;;;;50.50;35.72;;;103.30;2227.20;;;;;;4956014;28;20046;-57
2022/12/03 07:52:10;;;;;;;54.08;37.55;;;102.90;2227.20;;;;;;4973763;28;20030;-56
2022/12/03 07:54:36;;;;;;;50.80;35.78;;;102.80;2227.20;;;;;;4973319;28;20030;-57
2022/12/03 07:57:01;;;;;;;50.25;35.10;;;102.80;2227.20;;;;;;4973356;28;20050;-55
2022/12/03 07:59:27;;;;;;;57.08;38.83;;;102.90;2227.20;;;;;;4973124;28;20031;-56
2022/12/03 08:01:53;;;;;;;56.00;38.95;;;103.00;2227.20;;;;;;4973408;28;20409;-55
2022/12/03 08:04:20;;;;;;;49.55;33.30;;;103.00;2227.20;;;;;;4973584;28;20041;-58
2022/12/03 08:06:46;;;;;;;53.72;36.03;;;103.10;2227.20;;;;;;4973044;28;20122;-57
2022/12/03 08:09:12;;;;;;;48.75;35.53;;;128.00;2252.80;;;;;;4973583;28;20114;-55
2022/12/03 08:11:39;;;;;;;153.45;104.43;;;128.50;2252.80;;;;;;4972325;28;20030;-55
2022/12/03 08:14:12;;;;;;;100.68;68.97;;;153.90;2252.80;;;;;;4972860;28;20034;-55
2022/12/03 08:16:39;;;;;;;172.05;122.53;;;154.40;2252.80;;;;;;4972822;28;20113;-55
2022/12/03 08:19:09;;;;;;;164.68;115.32;;;154.30;2252.80;;;;;;4972926;28;20023;-55
2022/12/03 08:21:36;;;;;;;156.40;115.60;;;179.30;2252.80;;;;;;4972766;28;20035;-55
2022/12/03 08:24:11;;;;;;;125.07;87.47;;;179.30;2252.80;;;;;;4972937;28;20038;-55
2022/12/03 08:26:37;;;;;;;123.35;87.47;;;179.30;2252.80;;;;;;4972797;28;20507;-59
2022/12/03 08:29:08;;;;;;;166.00;116.07;;;179.30;2252.80;;;;;;4972764;28;20109;-60
2022/12/03 08:31:34;;;;;;;145.27;106.20;;;179.50;2252.80;;;;;;4972754;28;20101;-56
2022/12/03 08:34:20;;;;;;;147.82;112.35;;;179.80;2252.80;;;;;;4972934;28;20134;-55
2022/12/03 08:36:49;;;;;;;152.43;109.25;;;180.10;2252.80;;;;;;4972582;28;20371;-56
2022/12/03 08:39:21;;;;;;;186.60;141.13;;;205.50;2252.80;;;;;;4972660;28;20023;-56
2022/12/03 08:44:45;;;;;;;147.68;113.85;;;230.70;2252.80;;;;;;4980162;28;20037;-56
2022/12/03 08:47:22;;;;;;;155.63;123.97;;;230.90;2252.80;;;;;;4979968;28;20018;-55
2022/12/03 08:49:56;;;;;;;158.45;127.90;;;256.00;2252.80;;;;;;4972321;28;20031;-57
2022/12/03 08:52:31;;;;;;;182.90;145.90;;;256.10;2252.80;;;;;;4974849;28;20023;-59
2022/12/03 08:54:57;;;;;;;147.43;121.30;;;256.30;2252.80;;;;;;4979766;28;20036;-56
2022/12/03 08:57:31;;;;;;;177.40;144.35;;;282.10;2278.40;;;;;;4981656;28;20129;-56
2022/12/03 09:00:22;;;;;;;191.30;158.20;;;307.30;2304.00;;;;;;4981290;28;20049;-58
2022/12/03 09:02:51;;;;;;;157.50;132.05;;;282.50;2278.40;;;;;;4977855;28;20035;-58
2022/12/03 09:05:28;;;;;;;152.30;126.70;;;282.10;2278.40;;;;;;4979462;28;20030;-56
2022/12/03 09:08:04;;;;;;;139.30;120.63;;;307.20;2304.00;;;;;;4978618;28;20038;-59
2022/12/03 09:10:34;;;;;;;132.10;110.68;;;282.40;2278.40;;;;;;4957127;28;20033;-55
2022/12/03 09:13:00;;;;;;;99.80;83.90;;;282.10;2278.40;;;;;;4975197;28;20027;-61
2022/12/03 09:15:27;;;;;;;102.88;88.50;;;307.50;2304.00;;;;;;4974753;28;20023;-56
2022/12/03 09:17:53;;;;;;;123.00;102.28;;;308.00;2304.00;;;;;;4975067;28;20034;-57
2022/12/03 09:20:19;;;;;;;112.97;89.22;;;307.70;2304.00;;;;;;4974658;28;20029;-58
2022/12/03 09:22:45;;;;;;;110.82;89.47;;;308.10;2304.00;;;;;;4974824;28;20158;-58
2022/12/03 09:25:10;;;;;;;112.10;86.95;;;307.50;2304.00;;;;;;4975249;28;20418;-57
2022/12/03 09:27:36;;;;;;;104.82;85.18;;;307.50;2304.00;;;;;;4975277;28;20089;-58
2022/12/03 09:30:04;;;;;;;130.80;94.57;;;307.70;2304.00;;;;;;4974744;28;20023;-59
2022/12/03 09:32:30;;;;;;;128.50;94.68;;;282.50;2278.40;;;;;;4974303;28;20027;-56
2022/12/03 09:34:56;;;;;;;136.32;98.47;;;256.90;2252.80;;;;;;4974397;28;20085;-56
2022/12/03 09:37:22;;;;;;;142.23;101.97;;;281.70;2278.40;;;;;;4974351;28;20031;-55
2022/12/03 09:39:48;;;;;;;136.88;105.53;;;231.30;2252.80;;;;;;4974505;28;20525;-57
2022/12/03 09:42:14;;;;;;;148.00;110.45;;;256.10;2252.80;;;;;;4974646;28;20481;-57
2022/12/03 09:44:40;;;;;;;118.57;87.45;;;256.10;2252.80;;;;;;4974916;28;20026;-55
2022/12/03 09:47:06;;;;;;;130.20;102.18;;;230.80;2252.80;;;;;;4974463;28;20026;-57
2022/12/03 09:49:35;;;;;;;176.82;127.93;;;231.10;2252.80;;;;;;4974566;28;20029;-56
2022/12/03 09:52:04;;;;;;;193.27;140.95;;;230.90;2252.80;;;;;;4974547;28;20033;-60
2022/12/03 09:54:31;;;;;;;143.80;105.28;;;230.70;2252.80;;;;;;4974521;28;20030;-56
2022/12/03 09:56:59;;;;;;;141.85;105.38;;;230.70;2252.80;;;;;;4974173;28;20210;-61
2022/12/03 09:59:30;;;;;;;142.77;103.63;;;205.70;2252.80;;;;;;4974173;28;20027;-55
2022/12/03 10:01:56;;;;;;;139.73;104.00;;;205.30;2252.80;;;;;;4974361;28;20049;-53
2022/12/03 10:04:23;;;;;;;149.30;103.80;;;205.40;2252.80;;;;;;4974555;28;20027;-54
2022/12/03 10:06:49;;;;;;;132.55;95.05;;;205.50;2252.80;;;;;;4974075;28;20031;-55
2022/12/03 10:09:22;;;;;;;151.77;111.78;;;205.30;2252.80;;;;;;4974413;28;20035;-57
2022/12/03 10:11:48;;;;;;;126.57;95.13;;;205.30;2252.80;;;;;;4974340;28;20417;-57
2022/12/03 10:14:16;;;;;;;132.50;86.93;;;205.50;2252.80;;;;;;4974120;28;20142;-56
2022/12/03 10:16:42;;;;;;;127.45;91.53;;;205.30;2252.80;;;;;;4974071;28;20019;-58
2022/12/03 10:19:25;;;;;;;133.65;92.07;;;205.30;2252.80;;;;;;4974384;28;20037;-58
2022/12/03 10:21:50;;;;;;;121.50;84.43;;;205.50;2252.80;;;;;;4974264;28;20035;-58
2022/12/03 10:24:24;;;;;;;121.78;87.65;;;205.20;2252.80;;;;;;4974036;28;20073;-58
2022/12/03 10:26:52;;;;;;;137.13;94.93;;;205.10;2252.80;;;;;;4973989;28;20019;-54
2022/12/03 10:29:18;;;;;;;196.25;133.52;;;205.10;2252.80;;;;;;4974245;28;20031;-57
2022/12/03 10:31:53;;;;;;;185.57;125.07;;;205.50;2252.80;;;;;;4974257;28;20381;-57
2022/12/03 10:34:23;;;;;;;170.75;112.45;;;205.40;2252.80;;;;;;4974156;28;20023;-59
2022/12/03 10:37:15;;;;;;;153.02;108.60;;;205.30;2252.80;;;;;;4977799;28;20046;-58
2022/12/03 10:39:54;;;;;;;141.13;100.30;;;230.40;2252.80;;;;;;4977775;28;20478;-58
2022/12/03 10:42:20;;;;;;;137.52;97.38;;;230.60;2252.80;;;;;;4977931;28;20038;-55
2022/12/03 10:44:45;;;;;;;142.95;98.60;;;230.50;2252.80;;;;;;4977883;28;20176;-59
2022/12/03 10:47:13;;;;;;;147.15;103.45;;;230.50;2252.80;;;;;;4977628;28;20027;-59
2022/12/03 10:49:40;;;;;;;145.50;101.15;;;230.90;2252.80;;;;;;4977696;28;20030;-56
2022/12/03 10:52:28;;;;;;;137.63;103.43;;;230.70;2252.80;;;;;;4977816;28;20081;-54
2022/12/03 10:54:54;;;;;;;112.03;84.35;;;231.00;2252.80;;;;;;4977790;28;20035;-55
2022/12/03 10:57:22;;;;;;;132.50;99.38;;;231.20;2252.80;;;;;;4977310;28;20528;-59
2022/12/03 10:59:48;;;;;;;151.02;114.85;;;231.10;2252.80;;;;;;4977368;28;20081;-55
2022/12/03 11:02:20;;;;;;;112.88;80.13;;;231.20;2252.80;;;;;;4977307;28;20424;-58
2022/12/03 11:04:47;;;;;;;107.22;76.03;;;256.00;2252.80;;;;;;4977351;28;20070;-59
2022/12/03 11:07:18;;;;;;;113.07;81.20;;;256.20;2252.80;;;;;;4977319;28;20118;-59
2022/12/03 11:09:54;;;;;;;126.45;90.70;;;256.00;2252.80;;;;;;4977199;28;20066;-55
2022/12/03 11:12:26;;;;;;;130.40;95.32;;;256.10;2252.80;;;;;;4977197;28;20547;-55
2022/12/03 11:14:55;;;;;;;132.25;99.80;;;256.30;2252.80;;;;;;4977374;28;20026;-59
2022/12/03 11:17:39;;;;;;;145.63;108.85;;;256.40;2252.80;;;;;;4977019;28;20113;-57
2022/12/03 11:20:28;;;;;;;126.43;95.13;;;256.40;2252.80;;;;;;4976949;28;20519;-60
2022/12/03 11:22:55;;;;;;;114.82;82.55;;;256.50;2252.80;;;;;;4898556;29;20152;-56
2022/12/03 11:25:24;;;;;;;120.05;89.28;;;256.50;2252.80;;;;;;4898739;29;20097;-59
2022/12/03 11:28:13;;;;;;;156.18;111.78;;;256.70;2252.80;;;;;;4898508;29;20037;-60
2022/12/03 11:30:52;;;;;;;156.70;115.10;;;256.40;2252.80;;;;;;4895212;29;20498;-59
2022/12/03 11:33:22;;;;;;;171.85;124.10;;;256.30;2252.80;;;;;;4899671;29;20063;-55
2022/12/03 11:36:03;;;;;;;180.82;130.80;;;256.50;2252.80;;;;;;4895414;29;20035;-60
2022/12/03 11:38:40;;;;;;;188.43;135.73;;;256.60;2252.80;;;;;;4901664;29;20039;-59
2022/12/03 11:41:18;;;;;;;174.82;132.60;;;256.70;2252.80;;;;;;4901718;29;20419;-60
2022/12/03 11:43:56;;;;;;;203.48;161.90;;;256.80;2252.80;;;;;;4904899;29;20556;-58
2022/12/03 11:46:36;;;;;;;188.27;137.20;;;256.80;2252.80;;;;;;4903742;29;20039;-60
2022/12/03 11:49:19;;;;;;;166.82;120.78;;;256.90;2252.80;;;;;;4902567;29;20025;-57
2022/12/03 11:51:45;;;;;;;135.43;101.93;;;256.90;2252.80;;;;;;4901374;29;20024;-61
2022/12/03 11:54:17;;;;;;;89.45;65.57;;;256.70;2252.80;;;;;;4902525;29;20530;-58
2022/12/03 11:56:46;;;;;;;98.07;72.93;;;256.90;2252.80;;;;;;4875416;29;20045;-59
2022/12/03 11:59:15;;;;;;;88.97;67.05;;;281.70;2278.40;;;;;;4893762;29;20047;-59
2022/12/03 12:01:42;;;;;;;108.78;75.78;;;281.70;2278.40;;;;;;4953475;28;20027;-57
2022/12/03 12:04:33;;;;;;;93.10;71.00;;;281.60;2278.40;;;;;;4956302;28;20039;-55
2022/12/03 12:06:59;;;;;;;106.07;79.32;;;256.60;2252.80;;;;;;4953861;29;20033;-58
2022/12/03 12:09:51;;;;;;;110.80;86.03;;;256.70;2252.80;;;;;;4953692;29;20031;-58
2022/12/03 12:12:29;;;;;;;105.68;80.00;;;281.60;2278.40;;;;;;4953894;29;20178;-58
2022/12/03 12:14:55;;;;;;;105.75;80.63;;;256.90;2252.80;;;;;;4953699;29;20031;-58
2022/12/03 12:17:33;;;;;;;121.40;84.40;;;256.90;2252.80;;;;;;4954072;29;20086;-56
2022/12/03 12:20:12;;;;;;;105.20;78.18;;;256.70;2252.80;;;;;;4953739;29;20031;-58